Itaquara, Brazil
Current Conditions -  °F | °C
As of 1:00 AM on Friday 28 Nov 2014 (Local Time) from SBIL Reporting Station
Scattered Clouds Scattered Clouds  
Wind Chill: 77°   Ceiling: Unl
Heat Index: 78°   Visibility: 6mi
Dew Point: 72°   Wind: 1mph
Humidity: 83%   Direction: 360°N
Pressure: 29.91"   Gusts: NA
Location:  13.45°S, 39.94°W
Report Text: SBIL 280400Z 36001KT 9999 SCT025 25/22 Q1013
Loading
Personal Weather Stations






























Interactive Weather Map New forecast layout! Learn more

10-Day Weather Forecast

Advertisements
Track Severe Weather on mobile